| time (UTC) | temp C | wind direction | speed KPH | gust KPH | rain 1hr cm | rain 24hr cm | rain mn cm | humidity % | barometer mb |
| 20260905193743 | 33 | 164 | 9.7 | 11.3 | 0.00 | 0.00 | 0.00 | 48 | 1013.1 |
| 20260905193238 | 32 | 145 | 4.8 | 8.0 | 0.00 | 0.00 | 0.00 | 47 | 1013.2 |
| 20260905192733 | 32 | 94 | 11.3 | 14.5 | 0.00 | 0.00 | 0.00 | 47 | 1013.2 |
| 20260905192230 | 32 | 168 | 14.5 | 17.7 | 0.00 | 0.00 | 0.00 | 47 | 1013.1 |
| 20260905191729 | 32 | 137 | 11.3 | 12.9 | 0.00 | 0.00 | 0.00 | 47 | 1013.2 |
| 20260905191227 | 32 | 154 | 8.0 | 9.7 | 0.00 | 0.00 | 0.00 | 48 | 1013.4 |
| 20260905190726 | 32 | 158 | 8.0 | 9.7 | 0.00 | 0.00 | 0.00 | 47 | 1013.4 |
| 20260905190225 | 32 | 69 | 6.4 | 8.0 | 0.00 | 0.00 | 0.00 | 49 | 1013.5 |
| 20260905185724 | 32 | 128 | 16.1 | 17.7 | 0.00 | 0.00 | 0.00 | 46 | 1013.4 |
| 20260905185218 | 32 | 157 | 11.3 | 12.9 | 0.00 | 0.00 | 0.00 | 47 | 1013.5 |
| 20260905184714 | 31 | 149 | 11.3 | 12.9 | 0.00 | 0.00 | 0.00 | 48 | 1013.8 |
| 20260905184212 | 32 | 164 | 12.9 | 14.5 | 0.00 | 0.00 | 0.00 | 47 | 1013.7 |
| 20260905183712 | 31 | 74 | 8.0 | 11.3 | 0.00 | 0.00 | 0.00 | 50 | 1013.8 |
| 20260905183208 | 31 | 95 | 9.7 | 12.9 | 0.00 | 0.00 | 0.00 | 49 | 1014.1 |
| 20260905182706 | 31 | 121 | 9.7 | 12.9 | 0.00 | 0.00 | 0.00 | 51 | 1013.9 |
| 20260905182201 | 30 | 157 | 8.0 | 9.7 | 0.00 | 0.00 | 0.00 | 51 | 1014.2 |
| 20260905181656 | 30 | 72 | 9.7 | 12.9 | 0.00 | 0.00 | 0.00 | 52 | 1014.1 |
| 20260905181155 | 30 | 106 | 14.5 | 17.7 | 0.00 | 0.00 | 0.00 | 51 | 1014.1 |
| 20260905180650 | 31 | 131 | 9.7 | 12.9 | 0.00 | 0.00 | 0.00 | 51 | 1014.0 |
| 20260905180145 | 30 | 101 | 14.5 | 16.1 | 0.00 | 0.00 | 0.00 | 49 | 1014.2 |
| 20260905175644 | 30 | 162 | 9.7 | 12.9 | 0.00 | 0.00 | 0.00 | 51 | 1014.3 |
| 20260905175140 | 30 | 120 | 8.0 | 12.9 | 0.00 | 0.00 | 0.00 | 53 | 1014.1 |
| 20260905174636 | 30 | 138 | 9.7 | 11.3 | 0.00 | 0.00 | 0.00 | 52 | 1014.2 |
| 20260905174131 | 30 | 119 | 9.7 | 11.3 | 0.00 | 0.00 | 0.00 | 53 | 1014.4 |
| 20260905173626 | 30 | 155 | 14.5 | 16.1 | 0.00 | 0.00 | 0.00 | 53 | 1014.6 |
| 20260905173122 | 30 | 142 | 11.3 | 14.5 | 0.00 | 0.00 | 0.00 | 53 | 1014.8 |
| 20260905172615 | 30 | 164 | 6.4 | 8.0 | 0.00 | 0.00 | 0.00 | 55 | 1014.4 |
| 20260905172110 | 29 | 129 | 11.3 | 12.9 | 0.00 | 0.00 | 0.00 | 54 | 1014.3 |
| 20260905171607 | 29 | 150 | 8.0 | 11.3 | 0.00 | 0.00 | 0.00 | 56 | 1014.1 |
| 20260905171102 | 28 | 85 | 9.7 | 12.9 | 0.00 | 0.00 | 0.00 | 55 | 1014.4 |
| 20260905170559 | 29 | 83 | 8.0 | 9.7 | 0.00 | 0.00 | 0.00 | 55 | 1014.1 |
| 20260905170054 | 28 | 155 | 6.4 | 8.0 | 0.00 | 0.00 | 0.00 | 56 | 1014.4 |
| 20260905165548 | 28 | 149 | 11.3 | 14.5 | 0.00 | 0.00 | 0.00 | 56 | 1014.3 |
| 20260905165038 | 28 | 141 | 9.7 | 12.9 | 0.00 | 0.00 | 0.00 | 57 | 1014.2 |
| 20260905164538 | 28 | 166 | 12.9 | 14.5 | 0.00 | 0.00 | 0.00 | 57 | 1014.2 |
| 20260905164032 | 28 | 156 | 11.3 | 14.5 | 0.00 | 0.00 | 0.00 | 56 | 1014.3 |
| 20260905163529 | 28 | 121 | 16.1 | 20.9 | 0.00 | 0.00 | 0.00 | 56 | 1014.4 |
| 20260905163025 | 28 | 158 | 11.3 | 11.3 | 0.00 | 0.00 | 0.00 | 56 | 1014.2 |
| 20260905162520 | 28 | 155 | 14.5 | 17.7 | 0.00 | 0.00 | 0.00 | 57 | 1014.3 |
| 20260905162014 | 28 | 119 | 11.3 | 14.5 | 0.00 | 0.00 | 0.00 | 57 | 1014.3 |
| 20260905161509 | 28 | 146 | 16.1 | 17.7 | 0.00 | 0.00 | 0.00 | 56 | 1014.3 |
| 20260905161006 | 27 | 134 | 17.7 | 22.5 | 0.00 | 0.00 | 0.00 | 58 | 1014.3 |
| 20260905160500 | 28 | 115 | 8.0 | 9.7 | 0.00 | 0.00 | 0.00 | 60 | 1014.4 |
| 20260905155959 | 28 | 122 | 11.3 | 12.9 | 0.00 | 0.00 | 0.00 | 57 | 1014.9 |
| 20260905155454 | 28 | 152 | 6.4 | 8.0 | 0.00 | 0.00 | 0.00 | 58 | 1014.9 |
| 20260905154953 | 28 | 116 | 3.2 | 3.2 | 0.00 | 0.00 | 0.00 | 58 | 1014.5 |
| 20260905154448 | 27 | 89 | 3.2 | 3.2 | 0.00 | 0.00 | 0.00 | 61 | 1014.5 |
| 20260905153944 | 27 | 89 | 8.0 | 11.3 | 0.00 | 0.00 | 0.00 | 62 | 1014.3 |
| 20260905153440 | 27 | 144 | 8.0 | 9.7 | 0.00 | 0.00 | 0.00 | 63 | 1014.1 |
| 20260905152939 | 27 | 153 | 8.0 | 11.3 | 0.00 | 0.00 | 0.00 | 62 | 1014.4 |
| 20260905152434 | 26 | 73 | 3.2 | 3.2 | 0.00 | 0.00 | 0.00 | 64 | 1014.5 |
| 20260905151928 | 26 | 108 | 6.4 | 8.0 | 0.00 | 0.00 | 0.00 | 65 | 1014.2 |
| 20260905151419 | 26 | 111 | 4.8 | 8.0 | 0.00 | 0.00 | 0.00 | 65 | 1014.2 |
| 20260905150918 | 26 | 91 | 8.0 | 8.0 | 0.00 | 0.00 | 0.00 | 66 | 1014.1 |
| 20260905150413 | 26 | 85 | 4.8 | 4.8 | 0.00 | 0.00 | 0.00 | 66 | 1014.3 |
| 20260905145909 | 26 | 54 | 4.8 | 4.8 | 0.00 | 0.00 | 0.00 | 66 | 1014.5 |
| 20260905145409 | 25 | 81 | 3.2 | 3.2 | 0.00 | 0.00 | 0.00 | 68 | 1014.1 |
| 20260905144904 | 26 | 61 | 3.2 | 3.2 | 0.00 | 0.00 | 0.00 | 66 | 1014.2 |
| 20260905144359 | 25 | 84 | 1.6 | 3.2 | 0.00 | 0.00 | 0.00 | 68 | 1014.4 |
| 20260905143857 | 25 | 57 | 1.6 | 1.6 | 0.00 | 0.00 | 0.00 | 70 | 1014.3 |
| 20260905143351 | 25 | 57 | 4.8 | 4.8 | 0.00 | 0.00 | 0.00 | 69 | 1013.9 |
| 20260905142846 | 24 | 54 | 8.0 | 9.7 | 0.00 | 0.00 | 0.00 | 71 | 1013.7 |
| 20260905142344 | 24 | 75 | 4.8 | 4.8 | 0.00 | 0.00 | 0.00 | 73 | 1013.9 |
| 20260905141841 | 24 | 49 | 3.2 | 3.2 | 0.00 | 0.00 | 0.00 | 72 | 1013.9 |
| 20260905141336 | 25 | 60 | 1.6 | 1.6 | 0.00 | 0.00 | 0.00 | 71 | 1014.0 |
| 20260905140832 | 24 | 115 | 9.7 | 11.3 | 0.00 | 0.00 | 0.00 | 72 | 1013.3 |
| 20260905140331 | 23 | 134 | 14.5 | 16.1 | 0.00 | 0.00 | 0.00 | 73 | 1013.0 |
| 20260905135830 | 23 | 128 | 11.3 | 12.9 | 0.00 | 0.00 | 0.00 | 74 | 1013.2 |
| 20260905135326 | 22 | 189 | 11.3 | 12.9 | 0.00 | 0.00 | 0.00 | 77 | 1013.0 |
| 20260905134821 | 22 | 65 | 9.7 | 12.9 | 0.00 | 0.00 | 0.00 | 80 | 1012.7 |
| 20260905134314 | 22 | 96 | 8.0 | 11.3 | 0.00 | 0.00 | 0.00 | 79 | 1013.0 |
| 20260905133809 | 22 | 127 | 8.0 | 9.7 | 0.00 | 0.00 | 0.00 | 80 | 1012.9 |
| 20260905133305 | 22 | 99 | 8.0 | 9.7 | 0.00 | 0.00 | 0.00 | 80 | 1012.7 |
| 20260905132803 | 22 | 122 | 9.7 | 12.9 | 0.00 | 0.00 | 0.00 | 81 | 1012.7 |
| 20260905132259 | 21 | 115 | 8.0 | 11.3 | 0.00 | 0.00 | 0.00 | 81 | 1012.6 |
| 20260905131759 | 21 | 105 | 8.0 | 9.7 | 0.00 | 0.00 | 0.00 | 82 | 1012.4 |
| 20260905131254 | 21 | 103 | 9.7 | 11.3 | 0.00 | 0.00 | 0.00 | 82 | 1012.7 |
| 20260905130750 | 21 | 77 | 8.0 | 9.7 | 0.00 | 0.00 | 0.00 | 83 | 1012.5 |
| 20260905130249 | 21 | 125 | 6.4 | 8.0 | 0.00 | 0.00 | 0.00 | 83 | 1012.5 |
| 20260905125744 | 21 | 103 | 8.0 | 9.7 | 0.00 | 0.00 | 0.00 | 84 | 1012.7 |
| 20260905125239 | 21 | 111 | 8.0 | 11.3 | 0.00 | 0.00 | 0.00 | 84 | 1012.4 |
| 20260905124735 | 21 | 90 | 11.3 | 12.9 | 0.00 | 0.00 | 0.00 | 85 | 1012.5 |
| 20260905124231 | 21 | 91 | 9.7 | 11.3 | 0.00 | 0.00 | 0.00 | 85 | 1012.7 |
| 20260905123726 | 21 | 127 | 9.7 | 11.3 | 0.00 | 0.00 | 0.00 | 85 | 1012.6 |
| 20260905123223 | 21 | 138 | 8.0 | 11.3 | 0.00 | 0.00 | 0.00 | 86 | 1012.4 |
| 20260905122722 | 21 | 106 | 11.3 | 12.9 | 0.00 | 0.00 | 0.00 | 87 | 1011.9 |
| 20260905122217 | 20 | 157 | 11.3 | 14.5 | 0.00 | 0.00 | 0.00 | 88 | 1012.1 |
| 20260905121712 | 20 | 130 | 8.0 | 9.7 | 0.00 | 0.00 | 0.00 | 88 | 1012.1 |
| 20260905121209 | 20 | 142 | 12.9 | 14.5 | 0.00 | 0.00 | 0.00 | 88 | 1012.0 |
| 20260905120707 | 20 | 76 | 12.9 | 16.1 | 0.00 | 0.00 | 0.00 | 89 | 1012.0 |
| 20260905120201 | 20 | 102 | 12.9 | 14.5 | 0.00 | 0.00 | 0.00 | 89 | 1012.0 |
| 20260905115656 | 20 | 120 | 9.7 | 12.9 | 0.00 | 0.00 | 0.00 | 89 | 1012.0 |
| 20260905115151 | 20 | 109 | 11.3 | 12.9 | 0.00 | 0.00 | 0.00 | 90 | 1012.1 |
| 20260905114651 | 20 | 131 | 11.3 | 12.9 | 0.00 | 0.00 | 0.00 | 90 | 1012.1 |
| 20260905114149 | 20 | 83 | 9.7 | 12.9 | 0.00 | 0.00 | 0.00 | 90 | 1012.0 |
| 20260905113644 | 20 | 106 | 9.7 | 11.3 | 0.00 | 0.00 | 0.00 | 91 | 1012.2 |
| 20260905113139 | 20 | 128 | 6.4 | 8.0 | 0.00 | 0.00 | 0.00 | 91 | 1012.2 |
| 20260905112633 | 20 | 90 | 6.4 | 8.0 | 0.00 | 0.00 | 0.00 | 91 | 1012.1 |
| 20260905112130 | 20 | 106 | 4.8 | 4.8 | 0.00 | 0.00 | 0.00 | 90 | 1012.4 |
| 20260905111629 | 20 | 119 | 6.4 | 8.0 | 0.00 | 0.00 | 0.00 | 90 | 1012.3 |
| 20260905111128 | 20 | 95 | 8.0 | 8.0 | 0.00 | 0.00 | 0.00 | 90 | 1012.2 |
| 20260905110628 | 20 | 143 | 11.3 | 12.9 | 0.00 | 0.00 | 0.00 | 90 | 1012.0 |
| 20260905110123 | 20 | 131 | 8.0 | 9.7 | 0.00 | 0.00 | 0.00 | 90 | 1011.9 |
| 20260905105618 | 20 | 118 | 11.3 | 12.9 | 0.00 | 0.00 | 0.00 | 90 | 1011.9 |
| 20260905105117 | 20 | 114 | 9.7 | 11.3 | 0.00 | 0.00 | 0.00 | 90 | 1012.1 |
| 20260905104612 | 20 | 109 | 9.7 | 12.9 | 0.00 | 0.00 | 0.00 | 90 | 1011.9 |
| 20260905104107 | 20 | 126 | 11.3 | 14.5 | 0.00 | 0.00 | 0.00 | 90 | 1011.6 |
| 20260905103602 | 20 | 148 | 9.7 | 11.3 | 0.00 | 0.00 | 0.00 | 90 | 1011.8 |
| 20260905103059 | 20 | 112 | 8.0 | 11.3 | 0.00 | 0.00 | 0.00 | 90 | 1011.5 |
| 20260905102554 | 20 | 131 | 14.5 | 14.5 | 0.00 | 0.00 | 0.00 | 90 | 1011.7 |
| 20260905102050 | 20 | 132 | 12.9 | 14.5 | 0.00 | 0.00 | 0.00 | 90 | 1011.7 |
| 20260905101549 | 20 | 129 | 9.7 | 11.3 | 0.00 | 0.00 | 0.00 | 89 | 1011.6 |
| 20260905101047 | 20 | 107 | 14.5 | 17.7 | 0.00 | 0.00 | 0.00 | 89 | 1011.7 |
| 20260905100544 | 20 | 101 | 14.5 | 20.9 | 0.00 | 0.00 | 0.00 | 89 | 1011.5 |
| 20260905100043 | 20 | 108 | 14.5 | 17.7 | 0.00 | 0.00 | 0.00 | 89 | 1011.4 |
| 20260905095537 | 20 | 98 | 17.7 | 20.9 | 0.00 | 0.00 | 0.00 | 89 | 1011.6 |
| 20260905095033 | 21 | 107 | 14.5 | 17.7 | 0.00 | 0.00 | 0.00 | 89 | 1011.4 |
| 20260905094528 | 21 | 87 | 17.7 | 20.9 | 0.00 | 0.00 | 0.00 | 88 | 1011.6 |
| 20260905094027 | 21 | 117 | 14.5 | 17.7 | 0.00 | 0.00 | 0.00 | 88 | 1011.3 |
| 20260905093516 | 21 | 90 | 22.5 | 27.4 | 0.00 | 0.00 | 0.00 | 88 | 1011.4 |
| 20260905093013 | 21 | 142 | 12.9 | 14.5 | 0.00 | 0.00 | 0.00 | 88 | 1011.5 |
| 20260905092513 | 21 | 144 | 12.9 | 14.5 | 0.00 | 0.00 | 0.00 | 88 | 1011.3 |
| 20260905092009 | 21 | 109 | 16.1 | 20.9 | 0.00 | 0.00 | 0.00 | 88 | 1011.4 |
| 20260905091508 | 21 | 117 | 16.1 | 17.7 | 0.00 | 0.00 | 0.00 | 87 | 1011.4 |
| 20260905091002 | 21 | 89 | 17.7 | 20.9 | 0.00 | 0.00 | 0.00 | 87 | 1011.6 |
| 20260905090457 | 21 | 136 | 16.1 | 20.9 | 0.00 | 0.00 | 0.00 | 87 | 1011.4 |
| 20260905085956 | 21 | 105 | 16.1 | 20.9 | 0.00 | 0.00 | 0.00 | 86 | 1011.5 |
| 20260905085455 | 21 | 112 | 16.1 | 17.7 | 0.00 | 0.00 | 0.00 | 86 | 1011.4 |
| 20260905084951 | 21 | 110 | 16.1 | 17.7 | 0.00 | 0.00 | 0.00 | 85 | 1011.5 |
| 20260905084451 | 21 | 126 | 14.5 | 16.1 | 0.00 | 0.00 | 0.00 | 84 | 1011.7 |
| 20260905083945 | 21 | 97 | 14.5 | 16.1 | 0.00 | 0.00 | 0.00 | 83 | 1011.8 |
| 20260905083442 | 21 | 85 | 17.7 | 22.5 | 0.00 | 0.00 | 0.00 | 82 | 1011.9 |
| 20260905082937 | 21 | 105 | 17.7 | 22.5 | 0.00 | 0.00 | 0.00 | 82 | 1011.9 |
| 20260905082433 | 21 | 100 | 11.3 | 12.9 | 0.00 | 0.00 | 0.00 | 81 | 1011.9 |
| 20260905081927 | 21 | 98 | 12.9 | 12.9 | 0.00 | 0.00 | 0.00 | 81 | 1011.9 |
| 20260905081422 | 21 | 116 | 14.5 | 16.1 | 0.00 | 0.00 | 0.00 | 80 | 1011.9 |
| 20260905080921 | 22 | 103 | 12.9 | 16.1 | 0.00 | 0.00 | 0.00 | 80 | 1011.9 |
| 20260905080416 | 22 | 101 | 17.7 | 20.9 | 0.00 | 0.00 | 0.00 | 80 | 1011.9 |
| 20260905075915 | 22 | 110 | 14.5 | 14.5 | 0.00 | 0.00 | 0.00 | 79 | 1012.0 |
| 20260905075409 | 22 | 145 | 14.5 | 17.7 | 0.00 | 0.00 | 0.00 | 79 | 1011.9 |
| 20260905074908 | 22 | 110 | 11.3 | 16.1 | 0.00 | 0.00 | 0.00 | 79 | 1012.2 |
| 20260905074404 | 22 | 108 | 20.9 | 25.7 | 0.00 | 0.00 | 0.00 | 78 | 1012.1 |
| 20260905073900 | 22 | 130 | 14.5 | 17.7 | 0.00 | 0.00 | 0.00 | 78 | 1012.2 |
| 20260905073355 | 22 | 109 | 12.9 | 14.5 | 0.00 | 0.00 | 0.00 | 78 | 1012.0 |
| 20260905072850 | 22 | 103 | 14.5 | 14.5 | 0.00 | 0.00 | 0.00 | 78 | 1012.2 |
| 20260905072345 | 22 | 122 | 14.5 | 17.7 | 0.00 | 0.00 | 0.00 | 77 | 1012.2 |
| 20260905071841 | 22 | 110 | 14.5 | 16.1 | 0.00 | 0.00 | 0.00 | 77 | 1012.3 |
| 20260905071337 | 22 | 111 | 14.5 | 16.1 | 0.00 | 0.00 | 0.00 | 77 | 1012.2 |
| 20260905070832 | 22 | 103 | 9.7 | 11.3 | 0.00 | 0.00 | 0.00 | 77 | 1012.3 |
| 20260905070328 | 22 | 67 | 14.5 | 16.1 | 0.00 | 0.00 | 0.00 | 77 | 1012.2 |
| 20260905065827 | 22 | 121 | 16.1 | 22.5 | 0.00 | 0.00 | 0.00 | 77 | 1012.4 |
| 20260905065325 | 22 | 141 | 14.5 | 20.9 | 0.00 | 0.00 | 0.00 | 77 | 1012.4 |
| 20260905064821 | 22 | 115 | 19.3 | 22.5 | 0.00 | 0.00 | 0.00 | 76 | 1012.2 |
| 20260905064317 | 22 | 78 | 17.7 | 22.5 | 0.00 | 0.00 | 0.00 | 76 | 1012.2 |
| 20260905063814 | 22 | 142 | 16.1 | 20.9 | 0.00 | 0.00 | 0.00 | 77 | 1012.3 |
| 20260905063311 | 22 | 98 | 11.3 | 12.9 | 0.00 | 0.00 | 0.00 | 77 | 1012.2 |
| 20260905062807 | 22 | 108 | 12.9 | 14.5 | 0.00 | 0.00 | 0.00 | 76 | 1012.4 |
| 20260905062305 | 23 | 94 | 14.5 | 16.1 | 0.00 | 0.00 | 0.00 | 76 | 1012.4 |
| 20260905061755 | 23 | 81 | 11.3 | 12.9 | 0.00 | 0.00 | 0.00 | 76 | 1012.5 |
| 20260905061250 | 23 | 86 | 11.3 | 12.9 | 0.00 | 0.00 | 0.00 | 75 | 1012.3 |
| 20260905060744 | 23 | 59 | 22.5 | 27.4 | 0.00 | 0.00 | 0.00 | 74 | 1012.2 |
| 20260905060242 | 23 | 102 | 17.7 | 20.9 | 0.00 | 0.00 | 0.00 | 73 | 1012.4 |
| 20260905055740 | 23 | 94 | 14.5 | 20.9 | 0.00 | 0.00 | 0.00 | 73 | 1012.4 |
| 20260905055235 | 23 | 76 | 19.3 | 24.1 | 0.00 | 0.00 | 0.00 | 73 | 1012.2 |
| 20260905054730 | 23 | 61 | 17.7 | 22.5 | 0.00 | 0.00 | 0.00 | 73 | 1012.5 |
| 20260905054227 | 23 | 119 | 17.7 | 20.9 | 0.00 | 0.00 | 0.00 | 73 | 1012.2 |
| 20260905053725 | 23 | 130 | 29.0 | 37.0 | 0.00 | 0.00 | 0.00 | 74 | 1012.3 |
| 20260905053221 | 23 | 108 | 17.7 | 20.9 | 0.00 | 0.00 | 0.00 | 74 | 1012.5 |
| 20260905052715 | 23 | 108 | 22.5 | 25.7 | 0.00 | 0.00 | 0.00 | 75 | 1012.4 |
| 20260905052210 | 23 | 91 | 12.9 | 14.5 | 0.00 | 0.00 | 0.00 | 74 | 1012.5 |
| 20260905051710 | 23 | 107 | 11.3 | 14.5 | 0.00 | 0.00 | 0.00 | 74 | 1013.0 |
| 20260905051207 | 23 | 102 | 16.1 | 20.9 | 0.00 | 0.00 | 0.00 | 73 | 1012.6 |
| 20260905050702 | 23 | 132 | 16.1 | 20.9 | 0.00 | 0.00 | 0.00 | 73 | 1012.6 |
| 20260905050159 | 23 | 120 | 17.7 | 22.5 | 0.00 | 0.00 | 0.00 | 73 | 1012.5 |
| 20260905045658 | 23 | 118 | 16.1 | 17.7 | 0.00 | 0.00 | 0.00 | 74 | 1012.5 |
| 20260905045154 | 23 | 101 | 12.9 | 14.5 | 0.00 | 0.00 | 0.00 | 74 | 1012.4 |
| 20260905044649 | 23 | 65 | 14.5 | 20.9 | 0.00 | 0.00 | 0.00 | 74 | 1012.6 |
| 20260905044144 | 23 | 90 | 11.3 | 14.5 | 0.00 | 0.00 | 0.00 | 74 | 1012.4 |
| 20260905043642 | 23 | 73 | 14.5 | 17.7 | 0.00 | 0.00 | 0.00 | 74 | 1012.5 |
| 20260905043138 | 23 | 120 | 14.5 | 22.5 | 0.00 | 0.00 | 0.00 | 73 | 1012.4 |
| 20260905042637 | 23 | 116 | 19.3 | 24.1 | 0.00 | 0.00 | 0.00 | 73 | 1012.6 |
| 20260905042131 | 23 | 139 | 16.1 | 22.5 | 0.00 | 0.00 | 0.00 | 73 | 1012.6 |
| 20260905041627 | 23 | 102 | 11.3 | 14.5 | 0.00 | 0.00 | 0.00 | 73 | 1012.7 |
| 20260905041122 | 23 | 124 | 11.3 | 14.5 | 0.00 | 0.00 | 0.00 | 72 | 1012.6 |
| 20260905040617 | 23 | 106 | 14.5 | 16.1 | 0.00 | 0.00 | 0.00 | 72 | 1012.5 |
| 20260905040116 | 23 | 122 | 11.3 | 12.9 | 0.00 | 0.00 | 0.00 | 72 | 1012.6 |
| 20260905035611 | 23 | 119 | 16.1 | 16.1 | 0.00 | 0.00 | 0.00 | 72 | 1012.7 |
| 20260905035107 | 23 | 95 | 14.5 | 20.9 | 0.00 | 0.00 | 0.00 | 72 | 1012.5 |
| 20260905034603 | 23 | 91 | 17.7 | 20.9 | 0.00 | 0.00 | 0.00 | 72 | 1012.7 |
| 20260905034057 | 24 | 128 | 9.7 | 14.5 | 0.00 | 0.00 | 0.00 | 72 | 1012.7 |
| 20260905033551 | 23 | 162 | 17.7 | 22.5 | 0.00 | 0.00 | 0.00 | 72 | 1012.6 |
| 20260905033047 | 23 | 137 | 19.3 | 25.7 | 0.00 | 0.00 | 0.00 | 72 | 1012.5 |
| 20260905032546 | 23 | 100 | 14.5 | 17.7 | 0.00 | 0.00 | 0.00 | 72 | 1012.9 |
| 20260905032041 | 23 | 125 | 16.1 | 20.9 | 0.00 | 0.00 | 0.00 | 72 | 1012.9 |
| 20260905031537 | 23 | 98 | 16.1 | 24.1 | 0.00 | 0.00 | 0.00 | 72 | 1012.7 |
| 20260905031037 | 24 | 79 | 12.9 | 14.5 | 0.00 | 0.00 | 0.00 | 71 | 1013.1 |
| 20260905030527 | 24 | 108 | 12.9 | 16.1 | 0.00 | 0.00 | 0.00 | 70 | 1012.9 |
| 20260905030027 | 24 | 117 | 9.7 | 11.3 | 0.00 | 0.00 | 0.00 | 70 | 1012.7 |
| 20260905025522 | 24 | 100 | 16.1 | 20.9 | 0.00 | 0.00 | 0.00 | 70 | 1012.9 |
| 20260905025019 | 25 | 80 | 14.5 | 17.7 | 0.00 | 0.00 | 0.00 | 69 | 1013.0 |
| 20260905024513 | 25 | 68 | 19.3 | 20.9 | 0.00 | 0.00 | 0.00 | 68 | 1013.0 |
| 20260905024009 | 25 | 89 | 12.9 | 16.1 | 0.00 | 0.00 | 0.00 | 68 | 1013.1 |
| 20260905023509 | 25 | 78 | 12.9 | 14.5 | 0.00 | 0.00 | 0.00 | 68 | 1012.9 |
| 20260905023003 | 25 | 116 | 16.1 | 22.5 | 0.00 | 0.00 | 0.00 | 67 | 1013.0 |
| 20260905022458 | 25 | 91 | 14.5 | 22.5 | 0.00 | 0.00 | 0.00 | 67 | 1012.9 |
| 20260905021953 | 25 | 117 | 16.1 | 17.7 | 0.00 | 0.00 | 0.00 | 66 | 1012.7 |
| 20260905021452 | 25 | 93 | 14.5 | 16.1 | 0.00 | 0.00 | 0.00 | 66 | 1012.7 |
| 20260905020948 | 25 | 145 | 14.5 | 17.7 | 0.00 | 0.00 | 0.00 | 66 | 1013.0 |
| 20260905020447 | 25 | 107 | 14.5 | 22.5 | 0.00 | 0.00 | 0.00 | 66 | 1012.9 |
| 20260905015942 | 25 | 94 | 11.3 | 12.9 | 0.00 | 0.00 | 0.00 | 65 | 1013.1 |
| 20260905015440 | 25 | 107 | 8.0 | 9.7 | 0.00 | 0.00 | 0.00 | 65 | 1013.0 |
| 20260905014939 | 25 | 113 | 11.3 | 14.5 | 0.00 | 0.00 | 0.00 | 64 | 1012.7 |
| 20260905014435 | 25 | 127 | 11.3 | 14.5 | 0.00 | 0.00 | 0.00 | 64 | 1012.6 |
| 20260905013930 | 25 | 77 | 6.4 | 9.7 | 0.00 | 0.00 | 0.00 | 64 | 1013.0 |
| 20260905013427 | 26 | 100 | 8.0 | 9.7 | 0.00 | 0.00 | 0.00 | 63 | 1012.6 |
| 20260905012922 | 26 | 74 | 8.0 | 11.3 | 0.00 | 0.00 | 0.00 | 62 | 1012.5 |
| 20260905012417 | 26 | 113 | 8.0 | 9.7 | 0.00 | 0.00 | 0.00 | 61 | 1012.6 |
| 20260905011914 | 26 | 104 | 11.3 | 12.9 | 0.00 | 0.00 | 0.00 | 60 | 1012.5 |
| 20260905011408 | 26 | 107 | 14.5 | 16.1 | 0.00 | 0.00 | 0.00 | 59 | 1012.4 |
| 20260905010904 | 27 | 134 | 9.7 | 12.9 | 0.00 | 0.00 | 0.00 | 59 | 1012.5 |
| 20260905010359 | 27 | 100 | 8.0 | 9.7 | 0.00 | 0.00 | 0.00 | 58 | 1012.3 |
| 20260905005855 | 27 | 85 | 9.7 | 9.7 | 0.00 | 0.00 | 0.00 | 57 | 1012.6 |
| 20260905005350 | 27 | 123 | 14.5 | 16.1 | 0.00 | 0.00 | 0.00 | 56 | 1012.3 |
| 20260905004845 | 27 | 102 | 17.7 | 17.7 | 0.00 | 0.00 | 0.00 | 55 | 1012.2 |
| 20260905004340 | 28 | 99 | 12.9 | 12.9 | 0.00 | 0.00 | 0.00 | 54 | 1012.0 |
| 20260905003836 | 28 | 75 | 14.5 | 17.7 | 0.00 | 0.00 | 0.00 | 54 | 1012.1 |
| 20260905003332 | 28 | 95 | 14.5 | 17.7 | 0.00 | 0.00 | 0.00 | 53 | 1012.2 |
| 20260905002826 | 28 | 81 | 19.3 | 22.5 | 0.00 | 0.00 | 0.00 | 52 | 1012.1 |
| 20260905002321 | 28 | 79 | 16.1 | 24.1 | 0.00 | 0.00 | 0.00 | 51 | 1012.0 |
| 20260905001816 | 29 | 102 | 14.5 | 14.5 | 0.00 | 0.00 | 0.00 | 50 | 1011.9 |
| 20260905001315 | 29 | 105 | 14.5 | 17.7 | 0.00 | 0.00 | 0.00 | 50 | 1011.8 |
| 20260905000811 | 30 | 128 | 14.5 | 17.7 | 0.00 | 0.00 | 0.00 | 49 | 1012.0 |
| 20260905000306 | 30 | 115 | 12.9 | 14.5 | 0.00 | 0.00 | 0.00 | 49 | 1011.9 |
| 20260904235801 | 30 | 147 | 11.3 | 14.5 | 0.00 | 0.00 | 0.00 | 50 | 1011.8 |
| 20260904235256 | 30 | 118 | 11.3 | 12.9 | 0.00 | 0.00 | 0.00 | 52 | 1011.9 |
| 20260904234750 | 30 | 87 | 16.1 | 17.7 | 0.00 | 0.00 | 0.00 | 52 | 1012.0 |
| 20260904234240 | 30 | 87 | 17.7 | 25.7 | 0.00 | 0.00 | 0.00 | 54 | 1011.9 |
| 20260904233736 | 30 | 80 | 14.5 | 17.7 | 0.00 | 0.00 | 0.00 | 54 | 1011.7 |
| 20260904233232 | 29 | 68 | 12.9 | 17.7 | 0.00 | 0.00 | 0.00 | 57 | 1011.7 |
| 20260904232729 | 29 | 102 | 11.3 | 14.5 | 0.00 | 0.00 | 0.00 | 57 | 1011.9 |
| 20260904232225 | 29 | 95 | 17.7 | 24.1 | 0.00 | 0.00 | 0.00 | 56 | 1011.8 |
| 20260904231720 | 30 | 69 | 17.7 | 24.1 | 0.00 | 0.00 | 0.00 | 56 | 1011.7 |
| 20260904231215 | 30 | 123 | 14.5 | 16.1 | 0.00 | 0.00 | 0.00 | 56 | 1011.8 |
| 20260904230715 | 30 | 95 | 19.3 | 24.1 | 0.00 | 0.00 | 0.00 | 55 | 1011.7 |
| 20260904230209 | 30 | 98 | 14.5 | 17.7 | 0.00 | 0.00 | 0.00 | 55 | 1011.6 |
| 20260904225708 | 30 | 78 | 24.1 | 27.4 | 0.00 | 0.00 | 0.00 | 54 | 1011.6 |
| 20260904225202 | 30 | 88 | 19.3 | 29.0 | 0.00 | 0.00 | 0.00 | 54 | 1011.6 |
| 20260904224656 | 30 | 113 | 17.7 | 20.9 | 0.00 | 0.00 | 0.00 | 54 | 1011.7 |
| 20260904224151 | 30 | 104 | 14.5 | 16.1 | 0.00 | 0.00 | 0.00 | 54 | 1011.8 |
| 20260904223651 | 30 | 55 | 19.3 | 24.1 | 0.00 | 0.00 | 0.00 | 53 | 1011.8 |
| 20260904223146 | 30 | 57 | 14.5 | 20.9 | 0.00 | 0.00 | 0.00 | 52 | 1011.7 |
| 20260904222642 | 30 | 103 | 19.3 | 22.5 | 0.00 | 0.00 | 0.00 | 51 | 1012.0 |
| 20260904222137 | 30 | 85 | 24.1 | 27.4 | 0.00 | 0.00 | 0.00 | 50 | 1011.9 |
| 20260904221636 | 30 | 92 | 12.9 | 12.9 | 0.00 | 0.00 | 0.00 | 50 | 1011.7 |
| 20260904221132 | 30 | 106 | 22.5 | 27.4 | 0.00 | 0.00 | 0.00 | 48 | 1011.9 |
| 20260904220626 | 30 | 115 | 16.1 | 17.7 | 0.00 | 0.00 | 0.00 | 48 | 1012.2 |
| 20260904220122 | 31 | 127 | 17.7 | 20.9 | 0.00 | 0.00 | 0.00 | 46 | 1012.1 |
| 20260904215622 | 31 | 120 | 11.3 | 16.1 | 0.00 | 0.00 | 0.00 | 47 | 1012.1 |
| 20260904215118 | 31 | 127 | 12.9 | 14.5 | 0.00 | 0.00 | 0.00 | 45 | 1012.2 |
| 20260904214618 | 31 | 122 | 20.9 | 27.4 | 0.00 | 0.00 | 0.00 | 44 | 1012.0 |
| 20260904214114 | 31 | 90 | 19.3 | 22.5 | 0.00 | 0.00 | 0.00 | 44 | 1012.0 |
| 20260904213611 | 31 | 88 | 14.5 | 20.9 | 0.00 | 0.00 | 0.00 | 44 | 1012.0 |
| 20260904213108 | 31 | 102 | 19.3 | 27.4 | 0.00 | 0.00 | 0.00 | 45 | 1011.9 |
| 20260904212608 | 31 | 122 | 22.5 | 24.1 | 0.00 | 0.00 | 0.00 | 45 | 1012.0 |
| 20260904212103 | 31 | 136 | 25.7 | 29.0 | 0.00 | 0.00 | 0.00 | 44 | 1011.9 |
| 20260904211602 | 31 | 86 | 20.9 | 25.7 | 0.00 | 0.00 | 0.00 | 45 | 1011.9 |
| 20260904211058 | 31 | 147 | 14.5 | 22.5 | 0.00 | 0.00 | 0.00 | 46 | 1011.9 |
| 20260904210557 | 31 | 111 | 16.1 | 17.7 | 0.00 | 0.00 | 0.00 | 47 | 1012.1 |
| 20260904210053 | 31 | 119 | 16.1 | 20.9 | 0.00 | 0.00 | 0.00 | 47 | 1012.1 |
| 20260904205548 | 31 | 51 | 14.5 | 20.9 | 0.00 | 0.00 | 0.00 | 47 | 1012.2 |
| 20260904205045 | 31 | 125 | 25.7 | 29.0 | 0.00 | 0.00 | 0.00 | 46 | 1012.1 |
| 20260904204541 | 30 | 133 | 16.1 | 17.7 | 0.00 | 0.00 | 0.00 | 47 | 1012.2 |
| 20260904204036 | 31 | 122 | 16.1 | 17.7 | 0.00 | 0.00 | 0.00 | 47 | 1012.6 |
| 20260904203533 | 31 | 136 | 14.5 | 16.1 | 0.00 | 0.00 | 0.00 | 47 | 1012.5 |
| 20260904203029 | 31 | 108 | 14.5 | 17.7 | 0.00 | 0.00 | 0.00 | 47 | 1012.4 |
| 20260904202524 | 31 | 136 | 19.3 | 25.7 | 0.00 | 0.00 | 0.00 | 45 | 1012.4 |
| 20260904202021 | 31 | 96 | 17.7 | 22.5 | 0.00 | 0.00 | 0.00 | 44 | 1012.4 |
| 20260904201516 | 31 | 135 | 11.3 | 16.1 | 0.00 | 0.00 | 0.00 | 46 | 1012.6 |
| 20260904201011 | 31 | 85 | 16.1 | 17.7 | 0.00 | 0.00 | 0.00 | 44 | 1012.4 |
| 20260904200509 | 31 | 127 | 17.7 | 17.7 | 0.00 | 0.00 | 0.00 | 43 | 1012.5 |
| 20260904200005 | 31 | 93 | 8.0 | 9.7 | 0.00 | 0.00 | 0.00 | 43 | 1012.3 |
| 20260904195503 | 31 | 114 | 16.1 | 22.5 | 0.00 | 0.00 | 0.00 | 43 | 1012.2 |
| 20260904195002 | 31 | 139 | 17.7 | 20.9 | 0.00 | 0.00 | 0.00 | 41 | 1012.3 |
| 20260904194457 | 31 | 123 | 24.1 | 33.8 | 0.00 | 0.00 | 0.00 | 43 | 1012.2 |